sensor_id;sensor_type;location;lat;lon;timestamp;temperature;humidity
65824;SHT31;52585;47.566;19.056;2022-08-03T00:00:47;23.74;52.68
65824;SHT31;52585;47.566;19.056;2022-08-03T00:03:13;23.73;52.94
65824;SHT31;52585;47.566;19.056;2022-08-03T00:05:38;23.71;52.99
65824;SHT31;52585;47.566;19.056;2022-08-03T00:08:04;23.67;53.08
65824;SHT31;52585;47.566;19.056;2022-08-03T00:10:30;23.64;53.13
65824;SHT31;52585;47.566;19.056;2022-08-03T00:12:56;23.63;53.18
65824;SHT31;52585;47.566;19.056;2022-08-03T00:15:22;23.62;53.23
65824;SHT31;52585;47.566;19.056;2022-08-03T00:17:48;23.60;53.28
65824;SHT31;52585;47.566;19.056;2022-08-03T00:20:13;23.58;53.26
65824;SHT31;52585;47.566;19.056;2022-08-03T00:22:39;23.56;53.28
65824;SHT31;52585;47.566;19.056;2022-08-03T00:25:05;23.54;53.29
65824;SHT31;52585;47.566;19.056;2022-08-03T00:27:31;23.51;53.47
65824;SHT31;52585;47.566;19.056;2022-08-03T00:29:57;23.50;53.55
65824;SHT31;52585;47.566;19.056;2022-08-03T00:32:23;23.48;53.59
65824;SHT31;52585;47.566;19.056;2022-08-03T00:34:49;23.45;53.59
65824;SHT31;52585;47.566;19.056;2022-08-03T00:37:14;23.44;53.65
65824;SHT31;52585;47.566;19.056;2022-08-03T00:39:40;23.42;53.74
65824;SHT31;52585;47.566;19.056;2022-08-03T00:42:07;23.41;53.78
65824;SHT31;52585;47.566;19.056;2022-08-03T00:44:38;23.38;53.72
65824;SHT31;52585;47.566;19.056;2022-08-03T00:47:05;23.36;53.83
65824;SHT31;52585;47.566;19.056;2022-08-03T00:49:32;23.35;53.83
65824;SHT31;52585;47.566;19.056;2022-08-03T00:51:58;23.31;53.88
65824;SHT31;52585;47.566;19.056;2022-08-03T00:54:25;23.29;54.04
65824;SHT31;52585;47.566;19.056;2022-08-03T00:56:51;23.27;54.12
65824;SHT31;52585;47.566;19.056;2022-08-03T00:59:18;23.26;54.23
65824;SHT31;52585;47.566;19.056;2022-08-03T01:01:43;23.24;54.30
65824;SHT31;52585;47.566;19.056;2022-08-03T01:04:09;23.23;54.38
65824;SHT31;52585;47.566;19.056;2022-08-03T01:06:38;23.22;54.45
65824;SHT31;52585;47.566;19.056;2022-08-03T01:12:09;23.17;54.62
65824;SHT31;52585;47.566;19.056;2022-08-03T01:20:35;23.11;54.66
65824;SHT31;52585;47.566;19.056;2022-08-03T01:31:36;23.07;54.98
65824;SHT31;52585;47.566;19.056;2022-08-03T01:34:13;23.05;55.10
65824;SHT31;52585;47.566;19.056;2022-08-03T01:36:51;23.05;55.21
65824;SHT31;52585;47.566;19.056;2022-08-03T01:39:22;23.03;55.22
65824;SHT31;52585;47.566;19.056;2022-08-03T01:41:57;23.00;55.12
65824;SHT31;52585;47.566;19.056;2022-08-03T01:44:40;22.97;55.26
65824;SHT31;52585;47.566;19.056;2022-08-03T01:47:09;22.95;55.22
65824;SHT31;52585;47.566;19.056;2022-08-03T01:49:38;22.92;55.31
65824;SHT31;52585;47.566;19.056;2022-08-03T01:52:09;22.91;55.37
65824;SHT31;52585;47.566;19.056;2022-08-03T01:54:42;22.88;55.49
65824;SHT31;52585;47.566;19.056;2022-08-03T01:57:12;22.84;55.47
65824;SHT31;52585;47.566;19.056;2022-08-03T01:59:40;22.82;55.64
65824;SHT31;52585;47.566;19.056;2022-08-03T02:02:13;22.80;55.78
65824;SHT31;52585;47.566;19.056;2022-08-03T02:04:42;22.79;55.87
65824;SHT31;52585;47.566;19.056;2022-08-03T02:07:11;22.76;55.97
65824;SHT31;52585;47.566;19.056;2022-08-03T02:09:40;22.75;56.05
65824;SHT31;52585;47.566;19.056;2022-08-03T02:12:11;22.74;56.08
65824;SHT31;52585;47.566;19.056;2022-08-03T02:14:40;22.71;56.01
65824;SHT31;52585;47.566;19.056;2022-08-03T02:17:10;22.67;56.05
65824;SHT31;52585;47.566;19.056;2022-08-03T02:19:39;22.66;56.23
65824;SHT31;52585;47.566;19.056;2022-08-03T02:22:11;22.64;56.36
65824;SHT31;52585;47.566;19.056;2022-08-03T02:24:40;22.61;56.32
65824;SHT31;52585;47.566;19.056;2022-08-03T02:27:09;22.58;56.40
65824;SHT31;52585;47.566;19.056;2022-08-03T02:29:48;22.57;56.54
65824;SHT31;52585;47.566;19.056;2022-08-03T02:32:23;22.54;56.55
65824;SHT31;52585;47.566;19.056;2022-08-03T02:35:00;22.51;56.64
65824;SHT31;52585;47.566;19.056;2022-08-03T02:37:31;22.50;56.84
65824;SHT31;52585;47.566;19.056;2022-08-03T02:40:04;22.49;56.93
65824;SHT31;52585;47.566;19.056;2022-08-03T02:42:34;22.48;57.02
65824;SHT31;52585;47.566;19.056;2022-08-03T02:45:05;22.47;57.07
65824;SHT31;52585;47.566;19.056;2022-08-03T02:47:40;22.45;57.15
65824;SHT31;52585;47.566;19.056;2022-08-03T02:50:10;22.43;57.19
65824;SHT31;52585;47.566;19.056;2022-08-03T02:52:40;22.43;57.36
65824;SHT31;52585;47.566;19.056;2022-08-03T02:55:11;22.42;57.29
65824;SHT31;52585;47.566;19.056;2022-08-03T02:57:39;22.41;57.39
65824;SHT31;52585;47.566;19.056;2022-08-03T03:00:09;22.37;57.53
65824;SHT31;52585;47.566;19.056;2022-08-03T03:02:37;22.34;57.64
65824;SHT31;52585;47.566;19.056;2022-08-03T03:05:06;22.32;57.71
65824;SHT31;52585;47.566;19.056;2022-08-03T03:07:36;22.31;57.71
65824;SHT31;52585;47.566;19.056;2022-08-03T03:10:03;22.30;57.84
65824;SHT31;52585;47.566;19.056;2022-08-03T03:12:30;22.29;58.02
65824;SHT31;52585;47.566;19.056;2022-08-03T03:14:59;22.27;58.02
65824;SHT31;52585;47.566;19.056;2022-08-03T03:17:25;22.26;58.05
65824;SHT31;52585;47.566;19.056;2022-08-03T03:19:52;22.25;58.04
65824;SHT31;52585;47.566;19.056;2022-08-03T03:22:19;22.22;58.11
65824;SHT31;52585;47.566;19.056;2022-08-03T03:24:48;22.20;58.15
65824;SHT31;52585;47.566;19.056;2022-08-03T03:27:15;22.19;58.22
65824;SHT31;52585;47.566;19.056;2022-08-03T03:29:42;22.17;58.26
65824;SHT31;52585;47.566;19.056;2022-08-03T03:32:09;22.16;58.36
65824;SHT31;52585;47.566;19.056;2022-08-03T03:34:35;22.16;58.49
65824;SHT31;52585;47.566;19.056;2022-08-03T03:37:02;22.15;58.63
65824;SHT31;52585;47.566;19.056;2022-08-03T03:39:29;22.14;58.51
65824;SHT31;52585;47.566;19.056;2022-08-03T03:41:55;22.11;58.65
65824;SHT31;52585;47.566;19.056;2022-08-03T03:44:31;22.11;58.89
65824;SHT31;52585;47.566;19.056;2022-08-03T03:46:57;22.10;58.93
65824;SHT31;52585;47.566;19.056;2022-08-03T03:49:23;22.08;59.06
65824;SHT31;52585;47.566;19.056;2022-08-03T03:51:51;22.07;58.98
65824;SHT31;52585;47.566;19.056;2022-08-03T03:54:19;22.05;59.14
65824;SHT31;52585;47.566;19.056;2022-08-03T03:56:45;22.04;59.28
65824;SHT31;52585;47.566;19.056;2022-08-03T03:59:12;22.03;59.38
65824;SHT31;52585;47.566;19.056;2022-08-03T04:01:37;22.02;59.69
65824;SHT31;52585;47.566;19.056;2022-08-03T04:04:04;22.02;59.67
65824;SHT31;52585;47.566;19.056;2022-08-03T04:06:49;22.02;59.69
65824;SHT31;52585;47.566;19.056;2022-08-03T04:09:37;22.02;59.62
65824;SHT31;52585;47.566;19.056;2022-08-03T04:12:25;22.01;59.82
65824;SHT31;52585;47.566;19.056;2022-08-03T04:14:53;22.00;59.98
65824;SHT31;52585;47.566;19.056;2022-08-03T04:17:23;22.00;60.09
65824;SHT31;52585;47.566;19.056;2022-08-03T04:19:53;21.97;60.08
65824;SHT31;52585;47.566;19.056;2022-08-03T04:22:23;21.82;60.31
65824;SHT31;52585;47.566;19.056;2022-08-03T04:25:04;21.69;60.70
65824;SHT31;52585;47.566;19.056;2022-08-03T04:27:37;21.58;60.90
65824;SHT31;52585;47.566;19.056;2022-08-03T04:30:06;21.49;61.34
65824;SHT31;52585;47.566;19.056;2022-08-03T04:32:34;21.46;61.78
65824;SHT31;52585;47.566;19.056;2022-08-03T04:35:03;21.47;61.91
65824;SHT31;52585;47.566;19.056;2022-08-03T04:37:37;21.48;62.35
65824;SHT31;52585;47.566;19.056;2022-08-03T04:40:19;21.48;62.61
65824;SHT31;52585;47.566;19.056;2022-08-03T04:42:55;21.50;62.94
65824;SHT31;52585;47.566;19.056;2022-08-03T04:45:23;21.54;63.22
65824;SHT31;52585;47.566;19.056;2022-08-03T04:47:54;21.57;63.41
65824;SHT31;52585;47.566;19.056;2022-08-03T04:50:21;21.61;63.51
65824;SHT31;52585;47.566;19.056;2022-08-03T04:52:49;21.63;63.93
65824;SHT31;52585;47.566;19.056;2022-08-03T04:57:54;21.69;64.48
65824;SHT31;52585;47.566;19.056;2022-08-03T05:00:21;21.73;64.84
65824;SHT31;52585;47.566;19.056;2022-08-03T05:02:47;21.79;65.19
65824;SHT31;52585;47.566;19.056;2022-08-03T05:05:14;21.86;65.59
65824;SHT31;52585;47.566;19.056;2022-08-03T05:07:41;21.91;65.62
65824;SHT31;52585;47.566;19.056;2022-08-03T05:10:08;21.98;65.80
65824;SHT31;52585;47.566;19.056;2022-08-03T05:12:36;22.04;65.86
65824;SHT31;52585;47.566;19.056;2022-08-03T05:15:03;22.11;65.81
65824;SHT31;52585;47.566;19.056;2022-08-03T05:17:30;22.17;65.82
65824;SHT31;52585;47.566;19.056;2022-08-03T05:19:58;22.22;65.67
65824;SHT31;52585;47.566;19.056;2022-08-03T05:22:25;22.28;65.52
65824;SHT31;52585;47.566;19.056;2022-08-03T05:24:51;22.33;65.45
65824;SHT31;52585;47.566;19.056;2022-08-03T05:27:16;22.37;65.39
65824;SHT31;52585;47.566;19.056;2022-08-03T05:29:46;22.41;65.26
65824;SHT31;52585;47.566;19.056;2022-08-03T05:32:14;22.46;65.13
65824;SHT31;52585;47.566;19.056;2022-08-03T05:34:41;22.50;65.34
65824;SHT31;52585;47.566;19.056;2022-08-03T05:37:08;22.55;65.28
65824;SHT31;52585;47.566;19.056;2022-08-03T05:39:34;22.61;65.31
65824;SHT31;52585;47.566;19.056;2022-08-03T05:42:01;22.66;65.16
65824;SHT31;52585;47.566;19.056;2022-08-03T05:44:26;22.70;65.02
65824;SHT31;52585;47.566;19.056;2022-08-03T05:46:53;22.75;64.92
65824;SHT31;52585;47.566;19.056;2022-08-03T05:49:18;22.80;64.90
65824;SHT31;52585;47.566;19.056;2022-08-03T05:51:44;22.84;64.64
65824;SHT31;52585;47.566;19.056;2022-08-03T05:54:10;22.87;64.62
65824;SHT31;52585;47.566;19.056;2022-08-03T05:56:36;22.91;64.70
65824;SHT31;52585;47.566;19.056;2022-08-03T05:59:02;22.94;64.60
65824;SHT31;52585;47.566;19.056;2022-08-03T06:01:28;22.99;64.38
65824;SHT31;52585;47.566;19.056;2022-08-03T06:03:56;23.03;64.33
65824;SHT31;52585;47.566;19.056;2022-08-03T06:06:22;23.06;64.32
65824;SHT31;52585;47.566;19.056;2022-08-03T06:08:47;23.09;64.59
65824;SHT31;52585;47.566;19.056;2022-08-03T06:11:13;23.14;64.48
65824;SHT31;52585;47.566;19.056;2022-08-03T06:13:39;23.20;64.30
65824;SHT31;52585;47.566;19.056;2022-08-03T06:16:05;23.26;64.19
65824;SHT31;52585;47.566;19.056;2022-08-03T06:18:31;23.33;64.22
65824;SHT31;52585;47.566;19.056;2022-08-03T06:20:57;23.40;64.35
65824;SHT31;52585;47.566;19.056;2022-08-03T06:23:23;23.45;64.44
65824;SHT31;52585;47.566;19.056;2022-08-03T06:25:48;23.50;64.57
65824;SHT31;52585;47.566;19.056;2022-08-03T06:28:14;23.55;63.82
65824;SHT31;52585;47.566;19.056;2022-08-03T06:30:40;23.61;63.32
65824;SHT31;52585;47.566;19.056;2022-08-03T06:33:05;23.66;63.06
65824;SHT31;52585;47.566;19.056;2022-08-03T06:35:31;23.71;62.79
65824;SHT31;52585;47.566;19.056;2022-08-03T06:37:57;23.74;62.74
65824;SHT31;52585;47.566;19.056;2022-08-03T06:40:23;23.78;62.51
65824;SHT31;52585;47.566;19.056;2022-08-03T06:42:56;23.83;62.27
65824;SHT31;52585;47.566;19.056;2022-08-03T06:45:24;23.88;62.34
65824;SHT31;52585;47.566;19.056;2022-08-03T06:48:00;23.92;62.44
65824;SHT31;52585;47.566;19.056;2022-08-03T06:50:32;23.95;62.31
65824;SHT31;52585;47.566;19.056;2022-08-03T06:53:00;23.98;62.28
65824;SHT31;52585;47.566;19.056;2022-08-03T06:55:26;24.03;62.34
65824;SHT31;52585;47.566;19.056;2022-08-03T06:57:52;24.07;62.25
65824;SHT31;52585;47.566;19.056;2022-08-03T07:00:18;24.10;62.06
65824;SHT31;52585;47.566;19.056;2022-08-03T07:02:45;24.14;61.98
65824;SHT31;52585;47.566;19.056;2022-08-03T07:05:11;24.18;61.91
65824;SHT31;52585;47.566;19.056;2022-08-03T07:07:37;24.23;61.95
65824;SHT31;52585;47.566;19.056;2022-08-03T07:10:04;24.27;61.84
65824;SHT31;52585;47.566;19.056;2022-08-03T07:12:32;24.32;62.17
65824;SHT31;52585;47.566;19.056;2022-08-03T07:15:02;24.37;62.16
65824;SHT31;52585;47.566;19.056;2022-08-03T07:17:30;24.44;62.28
65824;SHT31;52585;47.566;19.056;2022-08-03T07:19:59;24.50;61.39
65824;SHT31;52585;47.566;19.056;2022-08-03T07:22:27;24.57;61.02
65824;SHT31;52585;47.566;19.056;2022-08-03T07:24:53;24.65;60.86
65824;SHT31;52585;47.566;19.056;2022-08-03T07:27:19;24.70;60.36
65824;SHT31;52585;47.566;19.056;2022-08-03T07:29:45;24.75;59.93
65824;SHT31;52585;47.566;19.056;2022-08-03T07:32:11;24.82;59.62
65824;SHT31;52585;47.566;19.056;2022-08-03T07:34:36;24.90;59.46
65824;SHT31;52585;47.566;19.056;2022-08-03T07:37:02;24.95;59.24
65824;SHT31;52585;47.566;19.056;2022-08-03T07:39:27;25.01;58.87
65824;SHT31;52585;47.566;19.056;2022-08-03T07:41:53;25.06;58.82
65824;SHT31;52585;47.566;19.056;2022-08-03T07:44:18;25.11;58.78
65824;SHT31;52585;47.566;19.056;2022-08-03T07:46:45;25.18;58.64
65824;SHT31;52585;47.566;19.056;2022-08-03T07:49:11;25.24;58.43
65824;SHT31;52585;47.566;19.056;2022-08-03T07:51:37;25.30;58.10
65824;SHT31;52585;47.566;19.056;2022-08-03T07:54:04;25.35;57.86
65824;SHT31;52585;47.566;19.056;2022-08-03T07:56:30;25.39;57.56
65824;SHT31;52585;47.566;19.056;2022-08-03T07:58:55;25.43;57.65
65824;SHT31;52585;47.566;19.056;2022-08-03T08:01:21;25.51;57.42
65824;SHT31;52585;47.566;19.056;2022-08-03T08:03:48;25.55;57.29
65824;SHT31;52585;47.566;19.056;2022-08-03T08:06:14;25.60;57.17
65824;SHT31;52585;47.566;19.056;2022-08-03T08:08:42;25.68;56.93
65824;SHT31;52585;47.566;19.056;2022-08-03T08:11:08;25.74;56.62
65824;SHT31;52585;47.566;19.056;2022-08-03T08:13:33;25.78;56.57
65824;SHT31;52585;47.566;19.056;2022-08-03T08:16:01;25.83;56.36
65824;SHT31;52585;47.566;19.056;2022-08-03T08:18:27;25.86;56.16
65824;SHT31;52585;47.566;19.056;2022-08-03T08:20:56;25.90;55.99
65824;SHT31;52585;47.566;19.056;2022-08-03T08:23:25;25.93;55.89
65824;SHT31;52585;47.566;19.056;2022-08-03T08:25:51;25.98;55.86
65824;SHT31;52585;47.566;19.056;2022-08-03T08:28:18;26.03;55.77
65824;SHT31;52585;47.566;19.056;2022-08-03T08:30:45;26.08;55.54
65824;SHT31;52585;47.566;19.056;2022-08-03T08:33:12;26.12;55.52
65824;SHT31;52585;47.566;19.056;2022-08-03T08:35:38;26.16;55.37
65824;SHT31;52585;47.566;19.056;2022-08-03T08:38:04;26.18;54.92
65824;SHT31;52585;47.566;19.056;2022-08-03T08:40:29;26.21;54.87
65824;SHT31;52585;47.566;19.056;2022-08-03T08:42:55;26.25;54.90
65824;SHT31;52585;47.566;19.056;2022-08-03T08:45:21;26.29;54.76
65824;SHT31;52585;47.566;19.056;2022-08-03T08:47:47;26.32;54.83
65824;SHT31;52585;47.566;19.056;2022-08-03T08:50:17;26.36;55.05
65824;SHT31;52585;47.566;19.056;2022-08-03T08:52:47;26.40;55.06
65824;SHT31;52585;47.566;19.056;2022-08-03T08:55:18;26.44;54.97
65824;SHT31;52585;47.566;19.056;2022-08-03T08:57:48;26.50;54.50
65824;SHT31;52585;47.566;19.056;2022-08-03T09:00:22;26.54;54.00
65824;SHT31;52585;47.566;19.056;2022-08-03T09:02:47;26.55;53.93
65824;SHT31;52585;47.566;19.056;2022-08-03T09:05:15;26.58;53.80
65824;SHT31;52585;47.566;19.056;2022-08-03T09:07:43;26.61;53.95
65824;SHT31;52585;47.566;19.056;2022-08-03T09:10:12;26.65;54.07
65824;SHT31;52585;47.566;19.056;2022-08-03T09:12:44;26.70;54.08
65824;SHT31;52585;47.566;19.056;2022-08-03T09:17:50;26.80;53.36
65824;SHT31;52585;47.566;19.056;2022-08-03T09:20:19;26.83;53.28
65824;SHT31;52585;47.566;19.056;2022-08-03T09:22:52;26.86;53.28
65824;SHT31;52585;47.566;19.056;2022-08-03T09:27:54;26.89;52.99
65824;SHT31;52585;47.566;19.056;2022-08-03T09:30:33;26.92;52.75
65824;SHT31;52585;47.566;19.056;2022-08-03T09:55:32;27.43;49.69
65824;SHT31;52585;47.566;19.056;2022-08-03T09:58:04;27.45;49.87
65824;SHT31;52585;47.566;19.056;2022-08-03T10:00:32;27.48;49.66
65824;SHT31;52585;47.566;19.056;2022-08-03T10:03:29;27.55;49.53
65824;SHT31;52585;47.566;19.056;2022-08-03T10:06:16;27.60;49.37
65824;SHT31;52585;47.566;19.056;2022-08-03T10:08:45;27.62;49.35
65824;SHT31;52585;47.566;19.056;2022-08-03T10:11:11;27.63;49.39
65824;SHT31;52585;47.566;19.056;2022-08-03T10:13:36;27.65;49.22
65824;SHT31;52585;47.566;19.056;2022-08-03T10:16:04;27.68;49.00
65824;SHT31;52585;47.566;19.056;2022-08-03T10:18:30;27.69;49.05
65824;SHT31;52585;47.566;19.056;2022-08-03T10:21:03;27.72;48.91
65824;SHT31;52585;47.566;19.056;2022-08-03T10:23:34;27.74;48.57
65824;SHT31;52585;47.566;19.056;2022-08-03T10:26:03;27.78;48.38
65824;SHT31;52585;47.566;19.056;2022-08-03T10:28:33;27.84;47.85
65824;SHT31;52585;47.566;19.056;2022-08-03T10:31:04;27.92;47.77
65824;SHT31;52585;47.566;19.056;2022-08-03T10:33:33;27.99;47.74
65824;SHT31;52585;47.566;19.056;2022-08-03T10:36:06;28.02;47.75
65824;SHT31;52585;47.566;19.056;2022-08-03T10:38:37;28.06;47.50
65824;SHT31;52585;47.566;19.056;2022-08-03T10:41:10;28.11;47.29
65824;SHT31;52585;47.566;19.056;2022-08-03T10:46:33;28.18;46.79
65824;SHT31;52585;47.566;19.056;2022-08-03T10:49:02;28.25;46.48
65824;SHT31;52585;47.566;19.056;2022-08-03T10:51:30;28.33;46.34
65824;SHT31;52585;47.566;19.056;2022-08-03T10:53:57;28.40;46.07
65824;SHT31;52585;47.566;19.056;2022-08-03T10:56:37;28.49;45.88
65824;SHT31;52585;47.566;19.056;2022-08-03T11:02:09;28.57;45.64
65824;SHT31;52585;47.566;19.056;2022-08-03T11:04:36;28.61;45.59
65824;SHT31;52585;47.566;19.056;2022-08-03T11:09:49;28.66;45.38
65824;SHT31;52585;47.566;19.056;2022-08-03T11:12:23;28.70;45.40
65824;SHT31;52585;47.566;19.056;2022-08-03T11:14:58;28.71;45.49
65824;SHT31;52585;47.566;19.056;2022-08-03T11:17:28;28.72;45.40
65824;SHT31;52585;47.566;19.056;2022-08-03T11:19:55;28.75;45.14
65824;SHT31;52585;47.566;19.056;2022-08-03T11:22:21;28.78;44.99
65824;SHT31;52585;47.566;19.056;2022-08-03T11:27:24;28.84;44.20
65824;SHT31;52585;47.566;19.056;2022-08-03T11:35:09;28.89;44.28
65824;SHT31;52585;47.566;19.056;2022-08-03T11:37:35;28.90;44.02
65824;SHT31;52585;47.566;19.056;2022-08-03T11:46:04;28.90;43.76
65824;SHT31;52585;47.566;19.056;2022-08-03T11:48:42;28.91;43.61
65824;SHT31;52585;47.566;19.056;2022-08-03T11:56:20;28.97;43.31
65824;SHT31;52585;47.566;19.056;2022-08-03T11:58:46;28.99;43.37
65824;SHT31;52585;47.566;19.056;2022-08-03T12:01:18;29.03;43.22
65824;SHT31;52585;47.566;19.056;2022-08-03T12:03:46;29.02;42.85
65824;SHT31;52585;47.566;19.056;2022-08-03T12:06:13;29.01;42.98
65824;SHT31;52585;47.566;19.056;2022-08-03T12:08:42;29.01;42.88
65824;SHT31;52585;47.566;19.056;2022-08-03T12:11:10;29.01;42.94
65824;SHT31;52585;47.566;19.056;2022-08-03T12:13:41;28.97;43.02
65824;SHT31;52585;47.566;19.056;2022-08-03T12:16:09;28.87;42.64
65824;SHT31;52585;47.566;19.056;2022-08-03T12:18:42;28.82;42.83
65824;SHT31;52585;47.566;19.056;2022-08-03T12:21:09;28.87;42.73
65824;SHT31;52585;47.566;19.056;2022-08-03T12:23:36;28.89;42.70
65824;SHT31;52585;47.566;19.056;2022-08-03T12:26:04;28.91;42.51
65824;SHT31;52585;47.566;19.056;2022-08-03T12:28:33;28.94;42.27
65824;SHT31;52585;47.566;19.056;2022-08-03T12:31:00;28.97;42.33
65824;SHT31;52585;47.566;19.056;2022-08-03T12:33:32;28.98;42.39
65824;SHT31;52585;47.566;19.056;2022-08-03T12:36:23;28.99;42.31
65824;SHT31;52585;47.566;19.056;2022-08-03T12:38:58;28.98;42.32
65824;SHT31;52585;47.566;19.056;2022-08-03T12:41:32;28.94;42.25
65824;SHT31;52585;47.566;19.056;2022-08-03T12:44:04;28.93;42.27
65824;SHT31;52585;47.566;19.056;2022-08-03T12:46:33;28.91;42.45
65824;SHT31;52585;47.566;19.056;2022-08-03T12:49:04;28.90;42.52
65824;SHT31;52585;47.566;19.056;2022-08-03T12:51:36;28.92;42.50
65824;SHT31;52585;47.566;19.056;2022-08-03T12:54:23;28.93;42.36
65824;SHT31;52585;47.566;19.056;2022-08-03T12:57:07;28.94;42.28
65824;SHT31;52585;47.566;19.056;2022-08-03T13:02:17;28.98;41.82
65824;SHT31;52585;47.566;19.056;2022-08-03T13:04:45;28.92;41.98
65824;SHT31;52585;47.566;19.056;2022-08-03T13:07:12;28.84;41.78
65824;SHT31;52585;47.566;19.056;2022-08-03T13:12:19;28.71;41.67
65824;SHT31;52585;47.566;19.056;2022-08-03T13:14:54;28.63;41.58
65824;SHT31;52585;47.566;19.056;2022-08-03T13:17:23;28.57;41.67
65824;SHT31;52585;47.566;19.056;2022-08-03T13:19:49;28.52;41.61
65824;SHT31;52585;47.566;19.056;2022-08-03T13:22:17;28.48;41.48
65824;SHT31;52585;47.566;19.056;2022-08-03T13:24:46;28.43;41.33
65824;SHT31;52585;47.566;19.056;2022-08-03T13:27:14;28.39;41.24
65824;SHT31;52585;47.566;19.056;2022-08-03T13:29:41;28.34;41.04
65824;SHT31;52585;47.566;19.056;2022-08-03T13:32:08;28.31;41.02
65824;SHT31;52585;47.566;19.056;2022-08-03T13:34:35;28.28;40.95
65824;SHT31;52585;47.566;19.056;2022-08-03T13:37:01;28.25;40.84
65824;SHT31;52585;47.566;19.056;2022-08-03T13:39:27;28.21;40.79
65824;SHT31;52585;47.566;19.056;2022-08-03T13:41:53;28.19;40.71
65824;SHT31;52585;47.566;19.056;2022-08-03T13:44:19;28.16;40.66
65824;SHT31;52585;47.566;19.056;2022-08-03T13:46:45;28.14;40.67
65824;SHT31;52585;47.566;19.056;2022-08-03T13:49:12;28.11;40.62
65824;SHT31;52585;47.566;19.056;2022-08-03T13:51:37;28.07;40.59
65824;SHT31;52585;47.566;19.056;2022-08-03T13:54:03;28.07;40.56
65824;SHT31;52585;47.566;19.056;2022-08-03T13:56:29;28.05;40.44
65824;SHT31;52585;47.566;19.056;2022-08-03T13:58:55;28.04;40.42
65824;SHT31;52585;47.566;19.056;2022-08-03T14:01:22;28.03;40.37
65824;SHT31;52585;47.566;19.056;2022-08-03T14:03:48;28.01;40.18
65824;SHT31;52585;47.566;19.056;2022-08-03T14:06:18;27.98;40.20
65824;SHT31;52585;47.566;19.056;2022-08-03T14:08:48;27.97;40.26
65824;SHT31;52585;47.566;19.056;2022-08-03T14:11:15;27.94;40.13
65824;SHT31;52585;47.566;19.056;2022-08-03T14:13:42;27.93;40.18
65824;SHT31;52585;47.566;19.056;2022-08-03T14:16:08;27.92;40.00
65824;SHT31;52585;47.566;19.056;2022-08-03T14:18:35;27.91;39.94
65824;SHT31;52585;47.566;19.056;2022-08-03T14:21:02;27.91;39.96
65824;SHT31;52585;47.566;19.056;2022-08-03T14:23:30;27.90;39.96
65824;SHT31;52585;47.566;19.056;2022-08-03T14:25:56;27.89;39.80
65824;SHT31;52585;47.566;19.056;2022-08-03T14:28:22;27.87;39.77
65824;SHT31;52585;47.566;19.056;2022-08-03T14:30:49;27.87;39.67
65824;SHT31;52585;47.566;19.056;2022-08-03T14:33:16;27.86;39.67
65824;SHT31;52585;47.566;19.056;2022-08-03T14:35:41;27.87;39.77
65824;SHT31;52585;47.566;19.056;2022-08-03T14:38:07;27.87;39.61
65824;SHT31;52585;47.566;19.056;2022-08-03T14:40:32;27.86;39.59
65824;SHT31;52585;47.566;19.056;2022-08-03T14:42:58;27.86;39.63
65824;SHT31;52585;47.566;19.056;2022-08-03T14:45:23;27.86;39.58
65824;SHT31;52585;47.566;19.056;2022-08-03T14:47:49;27.84;39.56
65824;SHT31;52585;47.566;19.056;2022-08-03T14:50:15;27.84;39.64
65824;SHT31;52585;47.566;19.056;2022-08-03T14:52:41;27.85;39.71
65824;SHT31;52585;47.566;19.056;2022-08-03T14:55:07;27.85;39.70
65824;SHT31;52585;47.566;19.056;2022-08-03T14:57:33;27.85;39.54
65824;SHT31;52585;47.566;19.056;2022-08-03T14:59:59;27.85;39.40
65824;SHT31;52585;47.566;19.056;2022-08-03T15:02:25;27.85;39.43
65824;SHT31;52585;47.566;19.056;2022-08-03T15:04:51;27.83;39.42
65824;SHT31;52585;47.566;19.056;2022-08-03T15:07:17;27.82;39.39
65824;SHT31;52585;47.566;19.056;2022-08-03T15:09:43;27.82;39.35
65824;SHT31;52585;47.566;19.056;2022-08-03T15:12:08;27.81;39.35
65824;SHT31;52585;47.566;19.056;2022-08-03T15:14:34;27.81;39.21
65824;SHT31;52585;47.566;19.056;2022-08-03T15:16:59;27.80;39.22
65824;SHT31;52585;47.566;19.056;2022-08-03T15:19:25;27.79;39.13
65824;SHT31;52585;47.566;19.056;2022-08-03T15:21:50;27.79;39.08
65824;SHT31;52585;47.566;19.056;2022-08-03T15:24:16;27.78;39.18
65824;SHT31;52585;47.566;19.056;2022-08-03T15:26:41;27.78;39.27
65824;SHT31;52585;47.566;19.056;2022-08-03T15:29:07;27.80;39.43
65824;SHT31;52585;47.566;19.056;2022-08-03T15:31:33;27.80;39.29
65824;SHT31;52585;47.566;19.056;2022-08-03T15:33:59;27.80;39.33
65824;SHT31;52585;47.566;19.056;2022-08-03T15:36:24;27.78;39.36
65824;SHT31;52585;47.566;19.056;2022-08-03T15:38:50;27.77;39.34
65824;SHT31;52585;47.566;19.056;2022-08-03T15:41:17;27.77;39.35
65824;SHT31;52585;47.566;19.056;2022-08-03T15:43:44;27.77;39.41
65824;SHT31;52585;47.566;19.056;2022-08-03T15:46:10;27.75;39.44
65824;SHT31;52585;47.566;19.056;2022-08-03T15:48:38;27.75;39.50
65824;SHT31;52585;47.566;19.056;2022-08-03T15:51:05;27.76;39.52
65824;SHT31;52585;47.566;19.056;2022-08-03T15:53:33;27.74;39.56
65824;SHT31;52585;47.566;19.056;2022-08-03T15:55:59;27.74;39.53
65824;SHT31;52585;47.566;19.056;2022-08-03T15:58:25;27.74;39.56
65824;SHT31;52585;47.566;19.056;2022-08-03T16:00:55;27.73;39.52
65824;SHT31;52585;47.566;19.056;2022-08-03T16:03:22;27.73;39.47
65824;SHT31;52585;47.566;19.056;2022-08-03T16:05:49;27.73;39.51
65824;SHT31;52585;47.566;19.056;2022-08-03T16:08:15;27.72;39.44
65824;SHT31;52585;47.566;19.056;2022-08-03T16:10:40;27.71;39.40
65824;SHT31;52585;47.566;19.056;2022-08-03T16:13:06;27.71;39.41
65824;SHT31;52585;47.566;19.056;2022-08-03T16:15:32;27.69;39.43
65824;SHT31;52585;47.566;19.056;2022-08-03T16:17:58;27.69;39.41
65824;SHT31;52585;47.566;19.056;2022-08-03T16:20:24;27.69;39.41
65824;SHT31;52585;47.566;19.056;2022-08-03T16:22:50;27.67;39.43
65824;SHT31;52585;47.566;19.056;2022-08-03T16:25:16;27.66;39.37
65824;SHT31;52585;47.566;19.056;2022-08-03T16:27:42;27.66;39.27
65824;SHT31;52585;47.566;19.056;2022-08-03T16:30:09;27.64;39.46
65824;SHT31;52585;47.566;19.056;2022-08-03T16:32:39;27.63;39.34
65824;SHT31;52585;47.566;19.056;2022-08-03T16:35:05;27.63;39.34
65824;SHT31;52585;47.566;19.056;2022-08-03T16:37:32;27.62;39.35
65824;SHT31;52585;47.566;19.056;2022-08-03T16:39:58;27.61;39.33
65824;SHT31;52585;47.566;19.056;2022-08-03T16:42:24;27.61;39.30